createdAt,value
2018-03-25T00:00:51.239Z,36.17
2018-03-25T00:03:18.812Z,43.07
2018-03-25T00:05:46.454Z,38.87
2018-03-25T00:08:14.030Z,41.47
2018-03-25T00:10:41.619Z,38.10
2018-03-25T00:13:09.244Z,44.00
2018-03-25T00:15:36.895Z,38.00
2018-03-25T00:18:04.476Z,39.90
2018-03-25T00:20:32.059Z,38.43
2018-03-25T00:22:59.681Z,40.53
2018-03-25T00:25:28.020Z,37.50
2018-03-25T00:27:55.672Z,38.87
2018-03-25T00:30:24.021Z,40.87
2018-03-25T00:32:51.688Z,34.90
2018-03-25T00:35:19.264Z,37.37
2018-03-25T00:37:46.839Z,42.10
2018-03-25T00:40:14.458Z,39.60
2018-03-25T00:42:42.037Z,39.20
2018-03-25T00:45:09.651Z,40.63
2018-03-25T00:47:37.237Z,39.50
2018-03-25T00:50:04.857Z,38.37
2018-03-25T00:52:32.443Z,38.80
2018-03-25T00:55:00.832Z,36.40
2018-03-25T00:57:28.408Z,39.40
2018-03-25T00:59:56.024Z,40.23
2018-03-25T01:02:23.636Z,37.33
2018-03-25T01:04:51.213Z,39.07
2018-03-25T01:07:18.825Z,38.33
2018-03-25T01:09:46.411Z,39.80
2018-03-25T01:12:13.993Z,37.10
2018-03-25T01:14:41.625Z,37.63
2018-03-25T01:17:09.203Z,40.73
2018-03-25T01:19:36.819Z,38.40
2018-03-25T01:22:04.412Z,36.70
2018-03-25T01:24:32.029Z,37.83
2018-03-25T01:26:59.607Z,38.10
2018-03-25T01:29:27.228Z,39.10
2018-03-25T01:31:54.803Z,38.63
2018-03-25T01:34:22.434Z,37.40
2018-03-25T01:36:50.007Z,36.07
2018-03-25T01:39:17.579Z,41.30
2018-03-25T01:41:45.212Z,37.83
2018-03-25T01:44:12.789Z,40.30
2018-03-25T01:46:40.359Z,38.87
2018-03-25T01:49:07.972Z,39.23
2018-03-25T01:51:36.316Z,38.57
2018-03-25T01:54:03.927Z,37.27
2018-03-25T01:56:31.498Z,39.23
2018-03-25T01:58:59.115Z,39.73
2018-03-25T02:01:26.727Z,39.80
2018-03-25T02:03:54.299Z,40.80
2018-03-25T02:06:21.924Z,38.10
2018-03-25T02:08:49.562Z,40.20
2018-03-25T02:11:17.143Z,39.20
2018-03-25T02:13:44.724Z,35.20
2018-03-25T02:16:14.724Z,43.23
2018-03-25T02:18:42.300Z,41.73
2018-03-25T02:21:09.876Z,38.37
2018-03-25T02:23:37.490Z,37.60
2018-03-25T02:26:05.109Z,37.40
2018-03-25T02:28:35.449Z,37.37
2018-03-25T02:31:03.027Z,33.77
2018-03-25T02:33:30.618Z,33.90
2018-03-25T02:36:00.000Z,36.80
2018-03-25T02:38:27.575Z,39.33
2018-03-25T02:40:55.922Z,38.33
2018-03-25T02:43:23.556Z,37.27
2018-03-25T02:45:51.143Z,38.33
2018-03-25T02:48:18.758Z,38.83
2018-03-25T02:50:46.328Z,37.50
2018-03-25T02:53:13.946Z,37.77
2018-03-25T02:55:42.337Z,38.50
2018-03-25T02:58:10.685Z,41.10
2018-03-25T03:00:38.304Z,42.33
2018-03-25T03:03:05.882Z,39.77
2018-03-25T03:05:33.497Z,36.50
2018-03-25T03:08:01.115Z,33.77
2018-03-25T03:10:28.688Z,39.03
2018-03-25T03:12:56.312Z,36.63
2018-03-25T03:15:23.925Z,39.83
2018-03-25T03:17:51.648Z,42.23
2018-03-25T03:20:19.227Z,37.00
2018-03-25T03:22:46.812Z,35.87
2018-03-25T03:25:14.453Z,39.20
2018-03-25T03:27:42.023Z,41.50
2018-03-25T03:30:09.636Z,39.23
2018-03-25T03:32:37.222Z,39.67
2018-03-25T03:35:04.845Z,32.97
2018-03-25T03:37:32.432Z,41.30
2018-03-25T03:40:00.050Z,40.43
2018-03-25T03:42:27.627Z,42.40
2018-03-25T03:44:56.019Z,38.97
2018-03-25T03:47:23.627Z,39.13
2018-03-25T03:49:51.199Z,36.93
2018-03-25T03:52:18.815Z,40.07
2018-03-25T03:54:46.388Z,37.07
2018-03-25T03:57:14.000Z,39.10
2018-03-25T03:59:42.376Z,40.17
2018-03-25T04:02:10.756Z,38.97
2018-03-25T04:04:38.335Z,41.80
2018-03-25T04:07:05.968Z,41.67
2018-03-25T04:09:33.579Z,38.67
2018-03-25T04:12:01.157Z,39.40
2018-03-25T04:14:28.802Z,39.47
2018-03-25T04:16:56.389Z,39.60
2018-03-25T04:19:23.969Z,36.77
2018-03-25T04:21:51.581Z,38.60
2018-03-25T04:24:19.160Z,41.67
2018-03-25T04:26:46.728Z,42.47
2018-03-25T04:29:14.354Z,38.13
2018-03-25T04:31:41.936Z,40.77
2018-03-25T04:34:09.542Z,45.13
2018-03-25T04:36:37.151Z,41.23
2018-03-25T04:39:04.758Z,44.73
2018-03-25T04:41:32.386Z,43.73
2018-03-25T04:43:59.959Z,43.07
2018-03-25T04:46:27.534Z,40.67
2018-03-25T04:48:55.145Z,41.17
2018-03-25T04:51:22.724Z,42.50
2018-03-25T04:53:50.357Z,40.07
2018-03-25T04:56:18.694Z,39.77
2018-03-25T04:58:46.269Z,40.43
2018-03-25T05:01:13.886Z,45.47
2018-03-25T05:03:41.463Z,42.93
2018-03-25T05:06:09.084Z,46.57
2018-03-25T05:08:36.659Z,42.20
2018-03-25T05:11:04.279Z,41.17
2018-03-25T05:13:31.946Z,43.13
2018-03-25T05:15:59.522Z,41.50
2018-03-25T05:18:28.738Z,41.37
2018-03-25T05:20:56.378Z,39.50
2018-03-25T05:23:23.991Z,42.70
2018-03-25T05:25:51.558Z,42.90
2018-03-25T05:28:19.175Z,44.57
2018-03-25T05:30:47.524Z,45.17
2018-03-25T05:33:15.140Z,45.10
2018-03-25T05:35:42.716Z,39.27
2018-03-25T05:38:11.177Z,40.20
2018-03-25T05:40:38.751Z,45.00
2018-03-25T05:43:06.376Z,41.27
2018-03-25T05:45:35.519Z,41.70
2018-03-25T05:48:03.090Z,42.80
2018-03-25T05:50:30.721Z,54.20
2018-03-25T05:52:58.291Z,45.97
2018-03-25T05:55:25.899Z,43.07
2018-03-25T05:57:53.526Z,45.97
2018-03-25T06:00:21.098Z,44.77
2018-03-25T06:02:48.676Z,40.43
2018-03-25T06:05:16.286Z,42.43
2018-03-25T06:07:43.860Z,41.30
2018-03-25T06:10:11.472Z,41.37
2018-03-25T06:12:39.875Z,43.50
2018-03-25T06:15:07.449Z,42.00
2018-03-25T06:17:35.021Z,45.57
2018-03-25T06:20:02.631Z,43.33
2018-03-25T06:22:30.210Z,43.53
2018-03-25T06:24:58.600Z,39.80
2018-03-25T06:27:26.167Z,46.17
2018-03-25T06:29:53.783Z,45.87
2018-03-25T06:32:21.367Z,43.53
2018-03-25T06:34:49.752Z,45.07
2018-03-25T06:37:18.136Z,43.77
2018-03-25T06:39:45.711Z,42.77
2018-03-25T06:42:13.319Z,41.63
2018-03-25T06:44:40.936Z,47.10
2018-03-25T06:47:08.514Z,46.27
2018-03-25T06:49:36.132Z,44.77
2018-03-25T06:52:03.734Z,47.93
2018-03-25T06:54:33.504Z,41.60
2018-03-25T06:57:03.288Z,43.20
2018-03-25T06:59:32.917Z,41.97
2018-03-25T07:02:01.283Z,45.80
2018-03-25T07:04:28.855Z,43.47
2018-03-25T07:06:56.469Z,43.30
2018-03-25T07:09:24.051Z,44.67
2018-03-25T07:11:51.660Z,43.40
2018-03-25T07:14:19.240Z,43.80
2018-03-25T07:16:46.844Z,45.97
2018-03-25T07:19:14.420Z,43.27
2018-03-25T07:21:42.818Z,48.17
2018-03-25T07:24:11.164Z,47.57
2018-03-25T07:26:38.739Z,43.60
2018-03-25T07:29:06.356Z,45.70
2018-03-25T07:31:33.952Z,49.90
2018-03-25T07:34:02.374Z,45.47
2018-03-25T07:36:29.952Z,46.07
2018-03-25T07:38:57.523Z,44.27
2018-03-25T07:41:25.149Z,40.33
2018-03-25T07:43:52.720Z,45.23
2018-03-25T07:46:20.328Z,40.37
2018-03-25T07:48:47.943Z,42.00
2018-03-25T07:51:15.523Z,43.17
2018-03-25T07:53:43.144Z,38.40
2018-03-25T07:56:11.528Z,47.90
2018-03-25T07:58:39.869Z,44.70
2018-03-25T08:01:07.492Z,42.53
2018-03-25T08:03:35.072Z,44.77
2018-03-25T08:06:02.683Z,47.10
2018-03-25T08:08:31.025Z,43.03
2018-03-25T08:10:58.647Z,46.77
2018-03-25T08:13:26.288Z,43.30
2018-03-25T08:15:53.869Z,45.37
2018-03-25T08:18:21.456Z,39.13
2018-03-25T08:20:49.064Z,40.33
2018-03-25T08:23:16.659Z,44.90
2018-03-25T08:25:44.283Z,43.50
2018-03-25T08:28:11.868Z,44.50
2018-03-25T08:30:39.442Z,45.67
2018-03-25T08:33:07.062Z,44.03
2018-03-25T08:35:34.671Z,45.97
2018-03-25T08:38:02.285Z,41.20
2018-03-25T08:40:29.870Z,42.53
2018-03-25T08:42:57.483Z,41.47
2018-03-25T08:45:25.064Z,44.90
2018-03-25T08:47:52.725Z,44.70
2018-03-25T08:50:20.295Z,45.57
2018-03-25T08:52:47.911Z,41.87
2018-03-25T08:55:15.523Z,44.10
2018-03-25T08:57:43.116Z,39.67
2018-03-25T09:00:10.726Z,38.57
2018-03-25T09:02:38.305Z,39.57
2018-03-25T09:05:06.023Z,38.53
2018-03-25T09:07:33.601Z,36.70
2018-03-25T09:10:01.179Z,41.43
2018-03-25T09:12:28.791Z,41.43
2018-03-25T09:14:56.387Z,44.63
2018-03-25T09:17:23.999Z,40.23
2018-03-25T09:19:51.621Z,44.37
2018-03-25T09:22:19.235Z,42.63
2018-03-25T09:24:46.855Z,37.37
2018-03-25T09:27:14.429Z,40.37
2018-03-25T09:29:44.713Z,44.50
2018-03-25T09:32:12.332Z,41.40
2018-03-25T09:34:39.913Z,41.43
2018-03-25T09:37:07.540Z,41.27
2018-03-25T09:39:35.872Z,41.40
2018-03-25T09:42:03.463Z,43.70
2018-03-25T09:44:31.086Z,39.07
2018-03-25T09:46:58.674Z,44.23
2018-03-25T09:49:26.305Z,41.03
2018-03-25T09:51:53.911Z,45.47
2018-03-25T09:54:21.494Z,41.93
2018-03-25T09:56:49.604Z,41.07
2018-03-25T09:59:17.721Z,43.47
2018-03-25T10:01:51.333Z,42.97
2018-03-25T10:04:19.709Z,42.03
2018-03-25T10:06:47.986Z,40.80
2018-03-25T10:09:16.168Z,41.73
2018-03-25T10:11:45.586Z,43.97
2018-03-25T10:14:13.876Z,38.87
2018-03-25T10:16:42.221Z,39.30
2018-03-25T10:19:10.406Z,42.70
2018-03-25T10:21:41.609Z,43.27
2018-03-25T10:24:10.383Z,47.67
2018-03-25T10:26:39.562Z,43.23
2018-03-25T10:29:09.043Z,42.57
2018-03-25T10:31:37.769Z,43.57
2018-03-25T10:34:05.916Z,40.83
2018-03-25T10:36:34.255Z,44.70
2018-03-25T10:39:02.461Z,44.80
2018-03-25T10:41:30.589Z,44.27
2018-03-25T10:43:58.608Z,43.33
2018-03-25T10:46:26.621Z,42.67
2018-03-25T10:48:55.732Z,43.03
2018-03-25T10:51:23.807Z,40.57
2018-03-25T10:53:51.901Z,40.10
2018-03-25T10:56:19.949Z,41.33
2018-03-25T10:58:48.057Z,40.90
2018-03-25T11:01:16.276Z,41.97
2018-03-25T11:03:44.394Z,41.10
2018-03-25T11:06:12.446Z,42.80
2018-03-25T11:08:40.620Z,43.47
2018-03-25T11:11:08.891Z,40.87
2018-03-25T11:13:37.800Z,41.83
2018-03-25T11:16:06.021Z,42.77
2018-03-25T11:18:34.249Z,43.67
2018-03-25T11:21:02.566Z,40.63
2018-03-25T11:23:30.677Z,43.03
2018-03-25T11:25:59.740Z,43.33
2018-03-25T11:28:27.633Z,43.00
2018-03-25T11:30:55.245Z,42.17
2018-03-25T11:33:23.631Z,39.73
2018-03-25T11:35:51.247Z,41.23
2018-03-25T11:38:18.867Z,43.17
2018-03-25T11:40:46.451Z,40.47
2018-03-25T11:43:14.071Z,39.40
2018-03-25T11:45:42.406Z,41.83
2018-03-25T11:48:09.983Z,45.37
2018-03-25T11:50:37.603Z,40.77
2018-03-25T11:53:05.176Z,42.43
2018-03-25T11:55:32.792Z,39.57
2018-03-25T11:58:01.180Z,41.37
2018-03-25T12:00:28.797Z,40.70
2018-03-25T12:02:56.422Z,43.00
2018-03-25T12:05:24.046Z,43.33
2018-03-25T12:07:51.627Z,42.27
2018-03-25T12:10:19.246Z,43.40
2018-03-25T12:12:46.829Z,40.47
2018-03-25T12:15:14.472Z,42.37
2018-03-25T12:17:42.054Z,41.67
2018-03-25T12:20:09.683Z,41.10
2018-03-25T12:22:37.260Z,45.10
2018-03-25T12:25:04.856Z,40.57
2018-03-25T12:27:32.473Z,43.47
2018-03-25T12:30:00.094Z,40.97
2018-03-25T12:32:27.711Z,42.00
2018-03-25T12:34:56.062Z,42.53
2018-03-25T12:37:23.688Z,40.87
2018-03-25T12:39:51.303Z,39.47
2018-03-25T12:42:18.948Z,36.27
2018-03-25T12:44:46.539Z,50.57
2018-03-25T12:47:14.209Z,41.30
2018-03-25T12:49:41.801Z,42.73
2018-03-25T12:52:09.401Z,40.47
2018-03-25T12:54:37.027Z,40.80
2018-03-25T12:57:04.618Z,39.60
2018-03-25T12:59:32.193Z,40.77
2018-03-25T13:01:59.815Z,46.00
2018-03-25T13:04:27.438Z,38.27
2018-03-25T13:06:55.015Z,37.70
2018-03-25T13:09:23.793Z,38.87
2018-03-25T13:11:52.140Z,34.63
2018-03-25T13:14:19.762Z,37.90
2018-03-25T13:16:47.380Z,42.37
2018-03-25T13:19:15.012Z,37.47
2018-03-25T13:21:42.603Z,39.20
2018-03-25T13:24:10.184Z,41.53
2018-03-25T13:26:38.568Z,38.57
2018-03-25T13:29:06.149Z,40.07
2018-03-25T13:31:33.735Z,40.50
2018-03-25T13:34:01.358Z,42.30
2018-03-25T13:36:28.982Z,40.07
2018-03-25T13:38:56.600Z,40.10
2018-03-25T13:41:24.199Z,44.67
2018-03-25T13:43:51.816Z,43.57
2018-03-25T13:46:19.397Z,46.40
2018-03-25T13:48:47.030Z,44.00
2018-03-25T13:51:14.652Z,44.60
2018-03-25T13:53:42.226Z,44.10
2018-03-25T13:56:09.863Z,42.83
2018-03-25T13:58:37.497Z,41.43
2018-03-25T14:01:05.854Z,39.90
2018-03-25T14:03:33.495Z,41.03
2018-03-25T14:06:01.092Z,44.40
2018-03-25T14:08:28.686Z,43.43
2018-03-25T14:10:56.296Z,43.67
2018-03-25T14:13:24.654Z,46.60
2018-03-25T14:15:52.272Z,45.27
2018-03-25T14:18:19.887Z,43.30
2018-03-25T14:20:47.503Z,43.40
2018-03-25T14:23:15.114Z,47.13
2018-03-25T14:25:43.498Z,43.07
2018-03-25T14:28:11.887Z,41.67
2018-03-25T14:30:40.266Z,44.10
2018-03-25T14:33:07.848Z,43.03
2018-03-25T14:35:35.495Z,48.30
2018-03-25T14:38:03.070Z,48.70
2018-03-25T14:40:30.655Z,47.07
2018-03-25T14:42:58.280Z,46.63
2018-03-25T14:45:25.903Z,49.10
2018-03-25T14:47:53.516Z,44.63
2018-03-25T14:50:21.296Z,44.70
2018-03-25T14:52:48.868Z,43.43
2018-03-25T14:55:16.495Z,44.90
2018-03-25T14:57:44.079Z,43.47
2018-03-25T15:00:11.758Z,47.83
2018-03-25T15:02:39.381Z,46.27
2018-03-25T15:05:07.007Z,46.37
2018-03-25T15:07:34.624Z,51.13
2018-03-25T15:10:02.213Z,46.63
2018-03-25T15:12:29.838Z,46.07
2018-03-25T15:14:57.420Z,45.50
2018-03-25T15:17:25.044Z,49.13
2018-03-25T15:19:52.678Z,47.97
2018-03-25T15:22:20.294Z,47.87
2018-03-25T15:24:47.886Z,47.77
2018-03-25T15:27:16.040Z,55.13
2018-03-25T15:29:46.521Z,54.83
2018-03-25T15:32:15.649Z,61.07
2018-03-25T15:34:43.785Z,72.00
2018-03-25T15:37:11.913Z,56.77
2018-03-25T15:39:40.031Z,54.27
2018-03-25T15:42:08.074Z,56.87
2018-03-25T15:44:36.179Z,58.33
2018-03-25T15:47:04.124Z,60.60
2018-03-25T15:49:32.527Z,60.17
2018-03-25T15:52:00.912Z,63.87
2018-03-25T15:54:29.269Z,64.03
2018-03-25T15:56:56.888Z,62.17
2018-03-25T15:59:24.463Z,64.97
2018-03-25T16:01:52.070Z,72.83
2018-03-25T16:04:19.704Z,75.63
2018-03-25T16:06:47.375Z,76.63
2018-03-25T16:09:14.959Z,71.17
2018-03-25T16:11:43.379Z,77.93
2018-03-25T16:14:11.016Z,81.93
2018-03-25T16:16:41.197Z,71.53
2018-03-25T16:19:11.458Z,76.33
2018-03-25T16:21:39.069Z,85.13
2018-03-25T16:24:08.714Z,92.57
2018-03-25T16:26:38.862Z,98.10
2018-03-25T16:29:06.556Z,99.90
2018-03-25T16:31:34.148Z,98.80
2018-03-25T16:34:02.345Z,100.53
2018-03-25T16:36:30.597Z,102.43
2018-03-25T16:38:58.711Z,101.40
2018-03-25T16:41:27.038Z,171.40
2018-03-25T16:43:55.156Z,101.23
2018-03-25T16:46:24.006Z,100.73
2018-03-25T16:48:51.634Z,99.80
2018-03-25T16:51:19.215Z,99.00
2018-03-25T16:53:46.829Z,101.30
2018-03-25T16:56:14.414Z,105.13
2018-03-25T16:58:42.024Z,95.30
2018-03-25T17:01:10.369Z,98.43
2018-03-25T17:03:37.990Z,97.37
2018-03-25T17:06:05.588Z,86.33
2018-03-25T17:08:33.213Z,86.50
2018-03-25T17:11:00.806Z,87.30
2018-03-25T17:13:28.471Z,86.77
2018-03-25T17:15:56.086Z,83.77
2018-03-25T17:18:24.432Z,80.07
2018-03-25T17:20:52.053Z,78.80
2018-03-25T17:23:19.636Z,88.23
2018-03-25T17:25:47.261Z,80.23
2018-03-25T17:28:14.836Z,80.37
2018-03-25T17:30:42.452Z,83.73
2018-03-25T17:33:10.034Z,84.83
2018-03-25T17:35:37.658Z,85.13
2018-03-25T17:38:06.032Z,88.47
2018-03-25T17:40:33.607Z,88.03
2018-03-25T17:43:01.223Z,88.37
2018-03-25T17:45:28.808Z,90.27
2018-03-25T17:47:56.419Z,87.77
2018-03-25T17:50:23.996Z,79.83
2018-03-25T17:52:51.624Z,85.50
2018-03-25T17:55:19.217Z,89.10
2018-03-25T17:57:46.863Z,102.10
2018-03-25T18:00:14.459Z,110.33
2018-03-25T18:02:42.030Z,107.87
2018-03-25T18:05:09.644Z,113.87
2018-03-25T18:07:40.373Z,108.73
2018-03-25T18:10:07.963Z,117.00
2018-03-25T18:12:35.591Z,111.47
2018-03-25T18:15:03.231Z,102.13
2018-03-25T18:17:34.102Z,113.50
2018-03-25T18:19:58.899Z,115.37
2018-03-25T18:22:26.979Z,116.47
2018-03-25T18:24:55.041Z,110.17
2018-03-25T18:27:23.257Z,114.03
2018-03-25T18:29:51.287Z,117.13
2018-03-25T18:32:19.547Z,119.87
2018-03-25T18:34:47.814Z,111.60
2018-03-25T18:37:16.623Z,115.17
2018-03-25T18:39:44.873Z,108.27
2018-03-25T18:42:13.318Z,110.53
2018-03-25T18:44:41.455Z,114.60
2018-03-25T18:47:09.497Z,112.80
2018-03-25T18:49:37.818Z,119.70
2018-03-25T18:52:06.202Z,110.50
2018-03-25T18:54:34.788Z,112.90
2018-03-25T18:57:02.769Z,108.83
2018-03-25T18:59:30.948Z,120.57
2018-03-25T19:01:59.452Z,113.17
2018-03-25T19:04:27.896Z,117.37
2018-03-25T19:06:55.981Z,109.07
2018-03-25T19:09:24.028Z,111.23
2018-03-25T19:11:52.039Z,105.83
2018-03-25T19:14:20.230Z,112.83
2018-03-25T19:16:47.886Z,114.23
2018-03-25T19:19:15.467Z,117.30
2018-03-25T19:21:43.097Z,106.77
2018-03-25T19:24:10.671Z,108.53
2018-03-25T19:26:38.388Z,105.80
2018-03-25T19:29:05.970Z,101.97
2018-03-25T19:31:33.557Z,112.97
2018-03-25T19:34:01.189Z,114.07
2018-03-25T19:36:28.805Z,105.20
2018-03-25T19:38:56.388Z,115.93
2018-03-25T19:41:24.086Z,109.27
2018-03-25T19:43:51.715Z,111.30
2018-03-25T19:46:20.096Z,114.90
2018-03-25T19:48:47.693Z,108.17
2018-03-25T19:51:15.342Z,127.20
2018-03-25T19:53:42.959Z,117.00
2018-03-25T19:56:10.596Z,118.97
2018-03-25T19:58:38.188Z,165.50
2018-03-25T20:01:05.871Z,115.10
2018-03-25T20:03:33.463Z,121.10
2018-03-25T20:06:01.099Z,123.17
2018-03-25T20:08:28.693Z,126.77
2018-03-25T20:10:56.267Z,117.27
2018-03-25T20:13:23.913Z,118.97
2018-03-25T20:15:51.525Z,124.47
2018-03-25T20:18:21.441Z,123.80
2018-03-25T20:20:49.113Z,126.63
2018-03-25T20:23:17.561Z,119.37
2018-03-25T20:28:19.079Z,123.97
2018-03-25T20:30:47.510Z,119.57
2018-03-25T20:33:16.210Z,122.67
2018-03-25T20:35:43.874Z,119.23
2018-03-25T20:38:11.455Z,122.10
2018-03-25T20:40:39.879Z,116.87
2018-03-25T20:43:07.516Z,120.47
2018-03-25T20:45:35.210Z,120.43
2018-03-25T20:48:03.364Z,109.53
2018-03-25T20:50:31.436Z,115.03
2018-03-25T20:52:59.750Z,110.53
2018-03-25T20:55:28.630Z,114.07
2018-03-25T20:57:56.724Z,115.83
2018-03-25T21:00:26.406Z,112.13
2018-03-25T21:02:53.998Z,122.57
2018-03-25T21:05:21.630Z,133.23
2018-03-25T21:07:49.199Z,126.73
2018-03-25T21:10:16.783Z,135.77
2018-03-25T21:12:44.400Z,120.20
2018-03-25T21:15:13.702Z,117.17
2018-03-25T21:17:41.608Z,132.60
2018-03-25T21:20:14.879Z,139.23
2018-03-25T21:22:42.946Z,126.17
2018-03-25T21:25:13.684Z,125.40
2018-03-25T21:27:41.377Z,118.67
2018-03-25T21:30:09.057Z,125.10
2018-03-25T21:32:38.882Z,122.80
2018-03-25T21:35:12.076Z,119.87
2018-03-25T21:37:39.765Z,125.67
2018-03-25T21:40:07.757Z,129.87
2018-03-25T21:42:36.078Z,148.10
2018-03-25T21:45:03.719Z,137.30
2018-03-25T21:47:31.631Z,134.57
2018-03-25T21:49:59.451Z,140.67
2018-03-25T21:52:27.051Z,146.93
2018-03-25T21:54:55.465Z,149.40
2018-03-25T21:57:23.177Z,141.97
2018-03-25T21:59:51.568Z,145.63
2018-03-25T22:02:19.978Z,147.13
2018-03-25T22:04:47.627Z,159.43
2018-03-25T22:07:15.224Z,148.27
2018-03-25T22:09:42.874Z,170.83
2018-03-25T22:12:10.890Z,162.27
2018-03-25T22:14:38.556Z,165.77
2018-03-25T22:17:10.638Z,163.77
2018-03-25T22:19:41.631Z,169.03
2018-03-25T22:22:09.276Z,173.60
2018-03-25T22:24:36.871Z,181.67
2018-03-25T22:27:04.525Z,188.30
2018-03-25T22:29:33.658Z,203.80
2018-03-25T22:32:01.341Z,202.50
2018-03-25T22:34:28.954Z,214.93
2018-03-25T22:36:56.782Z,214.97
2018-03-25T22:39:24.432Z,219.60
2018-03-25T22:41:52.028Z,231.57
2018-03-25T22:44:20.761Z,271.80
2018-03-25T22:46:48.536Z,298.83
2018-03-25T22:49:16.238Z,254.30
2018-03-25T22:51:43.991Z,247.83
2018-03-25T22:54:11.592Z,251.77
2018-03-25T22:56:39.167Z,211.67
2018-03-25T22:59:07.554Z,196.03
2018-03-25T23:01:35.175Z,236.00
2018-03-25T23:04:02.783Z,276.10
2018-03-25T23:06:30.403Z,231.43
2018-03-25T23:08:58.012Z,235.33
2018-03-25T23:11:26.367Z,259.43
2018-03-25T23:13:53.974Z,250.00
2018-03-25T23:16:21.585Z,154.60
2018-03-25T23:18:49.193Z,192.27
2018-03-25T23:21:16.763Z,206.80
2018-03-25T23:23:44.441Z,240.60
2018-03-25T23:26:12.015Z,181.50
2018-03-25T23:28:39.595Z,138.87
2018-03-25T23:31:07.227Z,154.23
2018-03-25T23:33:34.830Z,147.17
2018-03-25T23:36:02.400Z,149.33
2018-03-25T23:38:30.053Z,147.37
2018-03-25T23:40:57.674Z,138.03
2018-03-25T23:43:25.302Z,178.23
2018-03-25T23:45:52.932Z,152.43
2018-03-25T23:48:20.559Z,170.60
2018-03-25T23:50:48.130Z,162.43
2018-03-25T23:53:15.698Z,150.97
2018-03-25T23:55:43.313Z,170.33
2018-03-25T23:58:10.900Z,136.53
